sensor_id;sensor_type;location;lat;lon;timestamp;P1;durP1;ratioP1;P2;durP2;ratioP2
62711;SDS011;48772;55.586;37.730;2024-01-11T00:02:11;9.73;;;5.07;;
62711;SDS011;48772;55.586;37.730;2024-01-11T00:04:37;6.60;;;4.57;;
62711;SDS011;48772;55.586;37.730;2024-01-11T00:07:05;5.93;;;4.00;;
62711;SDS011;48772;55.586;37.730;2024-01-11T00:09:31;12.47;;;5.50;;
62711;SDS011;48772;55.586;37.730;2024-01-11T00:11:57;11.40;;;5.33;;
62711;SDS011;48772;55.586;37.730;2024-01-11T00:14:23;6.43;;;4.27;;
62711;SDS011;48772;55.586;37.730;2024-01-11T00:16:49;7.80;;;4.87;;
62711;SDS011;48772;55.586;37.730;2024-01-11T00:19:15;11.60;;;4.23;;
62711;SDS011;48772;55.586;37.730;2024-01-11T00:21:41;8.47;;;4.20;;
62711;SDS011;48772;55.586;37.730;2024-01-11T00:24:06;9.63;;;5.27;;
62711;SDS011;48772;55.586;37.730;2024-01-11T00:26:32;8.70;;;5.37;;
62711;SDS011;48772;55.586;37.730;2024-01-11T00:28:58;10.80;;;4.73;;
62711;SDS011;48772;55.586;37.730;2024-01-11T00:31:24;7.80;;;4.50;;
62711;SDS011;48772;55.586;37.730;2024-01-11T00:33:50;6.67;;;3.93;;
62711;SDS011;48772;55.586;37.730;2024-01-11T00:36:19;8.73;;;5.10;;
62711;SDS011;48772;55.586;37.730;2024-01-11T00:38:46;6.27;;;3.90;;
62711;SDS011;48772;55.586;37.730;2024-01-11T00:41:12;6.73;;;3.77;;
62711;SDS011;48772;55.586;37.730;2024-01-11T00:43:38;7.17;;;3.90;;
62711;SDS011;48772;55.586;37.730;2024-01-11T00:46:03;8.67;;;4.97;;
62711;SDS011;48772;55.586;37.730;2024-01-11T00:48:29;12.63;;;4.40;;
62711;SDS011;48772;55.586;37.730;2024-01-11T00:50:55;5.17;;;3.83;;
62711;SDS011;48772;55.586;37.730;2024-01-11T00:53:21;7.80;;;3.37;;
62711;SDS011;48772;55.586;37.730;2024-01-11T00:55:47;8.57;;;4.77;;
62711;SDS011;48772;55.586;37.730;2024-01-11T00:58:13;6.23;;;3.80;;
62711;SDS011;48772;55.586;37.730;2024-01-11T01:00:39;5.87;;;3.67;;
62711;SDS011;48772;55.586;37.730;2024-01-11T01:03:05;10.50;;;5.00;;
62711;SDS011;48772;55.586;37.730;2024-01-11T01:05:31;7.03;;;4.33;;
62711;SDS011;48772;55.586;37.730;2024-01-11T01:07:57;5.67;;;2.97;;
62711;SDS011;48772;55.586;37.730;2024-01-11T01:10:22;4.43;;;2.87;;
62711;SDS011;48772;55.586;37.730;2024-01-11T01:12:49;4.47;;;2.92;;
62711;SDS011;48772;55.586;37.730;2024-01-11T01:15:15;3.67;;;2.40;;
62711;SDS011;48772;55.586;37.730;2024-01-11T01:17:41;6.37;;;3.47;;
62711;SDS011;48772;55.586;37.730;2024-01-11T01:20:06;6.77;;;3.80;;
62711;SDS011;48772;55.586;37.730;2024-01-11T01:22:33;4.13;;;2.97;;
62711;SDS011;48772;55.586;37.730;2024-01-11T01:24:59;3.43;;;2.20;;
62711;SDS011;48772;55.586;37.730;2024-01-11T01:27:25;3.90;;;2.43;;
62711;SDS011;48772;55.586;37.730;2024-01-11T01:29:50;3.80;;;2.50;;
62711;SDS011;48772;55.586;37.730;2024-01-11T01:32:16;5.75;;;3.00;;
62711;SDS011;48772;55.586;37.730;2024-01-11T01:34:42;6.32;;;2.30;;
62711;SDS011;48772;55.586;37.730;2024-01-11T01:37:08;4.77;;;2.87;;
62711;SDS011;48772;55.586;37.730;2024-01-11T01:39:37;3.33;;;2.40;;
62711;SDS011;48772;55.586;37.730;2024-01-11T01:42:04;4.15;;;2.88;;
62711;SDS011;48772;55.586;37.730;2024-01-11T01:44:30;3.65;;;2.47;;
62711;SDS011;48772;55.586;37.730;2024-01-11T01:46:56;4.63;;;2.70;;
62711;SDS011;48772;55.586;37.730;2024-01-11T01:49:22;2.42;;;1.73;;
62711;SDS011;48772;55.586;37.730;2024-01-11T01:51:48;4.03;;;2.20;;
62711;SDS011;48772;55.586;37.730;2024-01-11T01:54:16;4.20;;;2.53;;
62711;SDS011;48772;55.586;37.730;2024-01-11T01:56:42;3.42;;;2.30;;
62711;SDS011;48772;55.586;37.730;2024-01-11T01:59:08;4.07;;;2.97;;
62711;SDS011;48772;55.586;37.730;2024-01-11T02:01:36;9.13;;;2.38;;
62711;SDS011;48772;55.586;37.730;2024-01-11T02:04:02;2.40;;;1.95;;
62711;SDS011;48772;55.586;37.730;2024-01-11T02:06:28;2.80;;;2.13;;
62711;SDS011;48772;55.586;37.730;2024-01-11T02:08:58;3.30;;;2.10;;
62711;SDS011;48772;55.586;37.730;2024-01-11T02:11:24;5.03;;;2.22;;
62711;SDS011;48772;55.586;37.730;2024-01-11T02:13:53;3.80;;;2.00;;
62711;SDS011;48772;55.586;37.730;2024-01-11T02:16:20;3.03;;;2.10;;
62711;SDS011;48772;55.586;37.730;2024-01-11T02:18:47;4.97;;;2.13;;
62711;SDS011;48772;55.586;37.730;2024-01-11T02:21:14;3.97;;;2.42;;
62711;SDS011;48772;55.586;37.730;2024-01-11T02:23:44;2.05;;;1.48;;
62711;SDS011;48772;55.586;37.730;2024-01-11T02:26:27;3.65;;;1.63;;
62711;SDS011;48772;55.586;37.730;2024-01-11T02:28:54;2.28;;;1.75;;
62711;SDS011;48772;55.586;37.730;2024-01-11T02:31:20;2.28;;;1.50;;
62711;SDS011;48772;55.586;37.730;2024-01-11T02:33:46;1.92;;;1.50;;
62711;SDS011;48772;55.586;37.730;2024-01-11T02:36:13;3.55;;;1.70;;
62711;SDS011;48772;55.586;37.730;2024-01-11T02:38:39;2.13;;;1.90;;
62711;SDS011;48772;55.586;37.730;2024-01-11T02:41:08;3.55;;;1.77;;
62711;SDS011;48772;55.586;37.730;2024-01-11T02:43:34;2.30;;;1.75;;
62711;SDS011;48772;55.586;37.730;2024-01-11T02:46:04;3.17;;;1.50;;
62711;SDS011;48772;55.586;37.730;2024-01-11T02:48:31;3.13;;;1.80;;
62711;SDS011;48772;55.586;37.730;2024-01-11T02:50:57;4.25;;;2.05;;
62711;SDS011;48772;55.586;37.730;2024-01-11T02:53:23;1.55;;;1.42;;
62711;SDS011;48772;55.586;37.730;2024-01-11T02:55:52;3.58;;;1.73;;
62711;SDS011;48772;55.586;37.730;2024-01-11T02:58:18;4.22;;;2.17;;
62711;SDS011;48772;55.586;37.730;2024-01-11T03:00:44;1.48;;;1.25;;
62711;SDS011;48772;55.586;37.730;2024-01-11T03:03:10;2.88;;;1.50;;
62711;SDS011;48772;55.586;37.730;2024-01-11T03:05:36;3.28;;;2.13;;
62711;SDS011;48772;55.586;37.730;2024-01-11T03:08:02;1.40;;;0.98;;
62711;SDS011;48772;55.586;37.730;2024-01-11T03:10:28;1.83;;;1.17;;
62711;SDS011;48772;55.586;37.730;2024-01-11T03:12:55;1.33;;;1.17;;
62711;SDS011;48772;55.586;37.730;2024-01-11T03:15:23;2.42;;;1.58;;
62711;SDS011;48772;55.586;37.730;2024-01-11T03:17:49;5.55;;;1.75;;
62711;SDS011;48772;55.586;37.730;2024-01-11T03:20:15;1.88;;;1.45;;
62711;SDS011;48772;55.586;37.730;2024-01-11T03:22:45;1.73;;;1.55;;
62711;SDS011;48772;55.586;37.730;2024-01-11T03:25:12;2.88;;;1.58;;
62711;SDS011;48772;55.586;37.730;2024-01-11T03:27:38;1.58;;;1.27;;
62711;SDS011;48772;55.586;37.730;2024-01-11T03:30:04;2.70;;;1.60;;
62711;SDS011;48772;55.586;37.730;2024-01-11T03:32:30;3.53;;;1.40;;
62711;SDS011;48772;55.586;37.730;2024-01-11T03:34:56;2.35;;;1.88;;
62711;SDS011;48772;55.586;37.730;2024-01-11T03:37:22;2.83;;;1.67;;
62711;SDS011;48772;55.586;37.730;2024-01-11T03:39:48;1.30;;;1.20;;
62711;SDS011;48772;55.586;37.730;2024-01-11T03:42:14;1.40;;;1.30;;
62711;SDS011;48772;55.586;37.730;2024-01-11T03:44:40;2.05;;;1.60;;
62711;SDS011;48772;55.586;37.730;2024-01-11T03:47:06;1.75;;;1.05;;
62711;SDS011;48772;55.586;37.730;2024-01-11T03:49:32;1.75;;;1.65;;
62711;SDS011;48772;55.586;37.730;2024-01-11T03:51:58;1.98;;;1.60;;
62711;SDS011;48772;55.586;37.730;2024-01-11T03:54:24;2.03;;;1.35;;
62711;SDS011;48772;55.586;37.730;2024-01-11T03:56:50;2.25;;;1.05;;
62711;SDS011;48772;55.586;37.730;2024-01-11T03:59:16;1.60;;;1.17;;
62711;SDS011;48772;55.586;37.730;2024-01-11T04:01:42;2.70;;;1.27;;
62711;SDS011;48772;55.586;37.730;2024-01-11T04:04:08;3.70;;;1.77;;
62711;SDS011;48772;55.586;37.730;2024-01-11T04:06:34;3.25;;;1.88;;
62711;SDS011;48772;55.586;37.730;2024-01-11T04:09:00;3.08;;;2.03;;
62711;SDS011;48772;55.586;37.730;2024-01-11T04:11:29;1.35;;;1.15;;
62711;SDS011;48772;55.586;37.730;2024-01-11T04:13:55;1.30;;;1.20;;
62711;SDS011;48772;55.586;37.730;2024-01-11T04:16:21;2.53;;;1.58;;
62711;SDS011;48772;55.586;37.730;2024-01-11T04:18:47;2.13;;;1.60;;
62711;SDS011;48772;55.586;37.730;2024-01-11T04:21:22;4.15;;;2.60;;
62711;SDS011;48772;55.586;37.730;2024-01-11T04:23:49;4.10;;;2.08;;
62711;SDS011;48772;55.586;37.730;2024-01-11T04:26:16;3.70;;;2.50;;
62711;SDS011;48772;55.586;37.730;2024-01-11T04:28:44;2.30;;;1.65;;
62711;SDS011;48772;55.586;37.730;2024-01-11T04:31:13;3.53;;;1.45;;
62711;SDS011;48772;55.586;37.730;2024-01-11T04:33:55;1.38;;;1.27;;
62711;SDS011;48772;55.586;37.730;2024-01-11T04:36:24;2.00;;;1.42;;
62711;SDS011;48772;55.586;37.730;2024-01-11T04:42:51;4.07;;;1.88;;
62711;SDS011;48772;55.586;37.730;2024-01-11T04:45:17;1.85;;;1.60;;
62711;SDS011;48772;55.586;37.730;2024-01-11T04:47:45;2.47;;;1.73;;
62711;SDS011;48772;55.586;37.730;2024-01-11T04:50:11;3.55;;;1.40;;
62711;SDS011;48772;55.586;37.730;2024-01-11T04:52:38;5.20;;;1.75;;
62711;SDS011;48772;55.586;37.730;2024-01-11T04:55:04;2.55;;;1.20;;
62711;SDS011;48772;55.586;37.730;2024-01-11T04:57:30;1.70;;;1.52;;
62711;SDS011;48772;55.586;37.730;2024-01-11T05:00:09;1.70;;;1.40;;
62711;SDS011;48772;55.586;37.730;2024-01-11T05:02:55;5.32;;;1.48;;
62711;SDS011;48772;55.586;37.730;2024-01-11T05:05:21;1.65;;;1.55;;
62711;SDS011;48772;55.586;37.730;2024-01-11T05:07:47;2.08;;;1.88;;
62711;SDS011;48772;55.586;37.730;2024-01-11T05:10:13;3.90;;;2.10;;
62711;SDS011;48772;55.586;37.730;2024-01-11T05:12:40;0.90;;;0.90;;
62711;SDS011;48772;55.586;37.730;2024-01-11T05:15:06;1.38;;;1.27;;
62711;SDS011;48772;55.586;37.730;2024-01-11T05:17:35;3.53;;;1.65;;
62711;SDS011;48772;55.586;37.730;2024-01-11T05:20:01;1.80;;;1.20;;
62711;SDS011;48772;55.586;37.730;2024-01-11T05:22:30;1.33;;;1.10;;
62711;SDS011;48772;55.586;37.730;2024-01-11T05:24:59;1.38;;;1.05;;
62711;SDS011;48772;55.586;37.730;2024-01-11T05:27:25;2.70;;;1.00;;
62711;SDS011;48772;55.586;37.730;2024-01-11T05:29:51;1.35;;;1.25;;
62711;SDS011;48772;55.586;37.730;2024-01-11T05:32:17;2.25;;;1.00;;
62711;SDS011;48772;55.586;37.730;2024-01-11T05:34:43;2.08;;;0.93;;
62711;SDS011;48772;55.586;37.730;2024-01-11T05:37:09;1.25;;;0.90;;
62711;SDS011;48772;55.586;37.730;2024-01-11T05:39:35;2.08;;;1.05;;
62711;SDS011;48772;55.586;37.730;2024-01-11T05:42:01;2.53;;;1.60;;
62711;SDS011;48772;55.586;37.730;2024-01-11T05:44:28;10.70;;;1.27;;
62711;SDS011;48772;55.586;37.730;2024-01-11T05:46:54;1.77;;;1.67;;
62711;SDS011;48772;55.586;37.730;2024-01-11T05:49:20;3.47;;;1.52;;
62711;SDS011;48772;55.586;37.730;2024-01-11T05:51:46;6.20;;;1.42;;
62711;SDS011;48772;55.586;37.730;2024-01-11T05:54:12;1.85;;;1.50;;
62711;SDS011;48772;55.586;37.730;2024-01-11T05:56:39;4.43;;;1.02;;
62711;SDS011;48772;55.586;37.730;2024-01-11T05:59:04;1.48;;;0.98;;
62711;SDS011;48772;55.586;37.730;2024-01-11T06:01:31;3.63;;;1.60;;
62711;SDS011;48772;55.586;37.730;2024-01-11T06:03:57;0.88;;;0.88;;
62711;SDS011;48772;55.586;37.730;2024-01-11T06:06:23;3.90;;;1.30;;
62711;SDS011;48772;55.586;37.730;2024-01-11T06:08:49;1.23;;;0.90;;
62711;SDS011;48772;55.586;37.730;2024-01-11T06:11:16;1.63;;;1.05;;
62711;SDS011;48772;55.586;37.730;2024-01-11T06:13:44;1.30;;;1.20;;
62711;SDS011;48772;55.586;37.730;2024-01-11T06:16:10;1.55;;;1.00;;
62711;SDS011;48772;55.586;37.730;2024-01-11T06:18:36;2.13;;;1.42;;
62711;SDS011;48772;55.586;37.730;2024-01-11T06:21:02;4.22;;;1.30;;
62711;SDS011;48772;55.586;37.730;2024-01-11T06:23:28;3.05;;;1.63;;
62711;SDS011;48772;55.586;37.730;2024-01-11T06:25:54;6.32;;;1.40;;
62711;SDS011;48772;55.586;37.730;2024-01-11T06:28:20;1.75;;;1.30;;
62711;SDS011;48772;55.586;37.730;2024-01-11T06:30:46;1.20;;;1.17;;
62711;SDS011;48772;55.586;37.730;2024-01-11T06:33:12;3.80;;;1.58;;
62711;SDS011;48772;55.586;37.730;2024-01-11T06:35:37;1.63;;;1.30;;
62711;SDS011;48772;55.586;37.730;2024-01-11T06:38:03;3.30;;;1.48;;
62711;SDS011;48772;55.586;37.730;2024-01-11T06:40:29;5.57;;;2.45;;
62711;SDS011;48772;55.586;37.730;2024-01-11T06:42:55;3.00;;;1.70;;
62711;SDS011;48772;55.586;37.730;2024-01-11T06:45:21;2.80;;;1.67;;
62711;SDS011;48772;55.586;37.730;2024-01-11T06:47:47;4.65;;;1.73;;
62711;SDS011;48772;55.586;37.730;2024-01-11T06:50:14;2.88;;;1.70;;
62711;SDS011;48772;55.586;37.730;2024-01-11T06:52:40;1.45;;;1.35;;
62711;SDS011;48772;55.586;37.730;2024-01-11T06:55:09;2.38;;;1.10;;
62711;SDS011;48772;55.586;37.730;2024-01-11T06:57:36;1.67;;;1.23;;
62711;SDS011;48772;55.586;37.730;2024-01-11T07:00:03;8.40;;;1.95;;
62711;SDS011;48772;55.586;37.730;2024-01-11T07:02:30;2.85;;;1.40;;
62711;SDS011;48772;55.586;37.730;2024-01-11T07:04:56;1.60;;;1.50;;
62711;SDS011;48772;55.586;37.730;2024-01-11T07:07:22;2.53;;;1.15;;
62711;SDS011;48772;55.586;37.730;2024-01-11T07:09:50;1.95;;;1.50;;
62711;SDS011;48772;55.586;37.730;2024-01-11T07:12:20;2.65;;;1.30;;
62711;SDS011;48772;55.586;37.730;2024-01-11T07:14:46;4.57;;;1.30;;
62711;SDS011;48772;55.586;37.730;2024-01-11T07:17:12;1.70;;;1.30;;
62711;SDS011;48772;55.586;37.730;2024-01-11T07:19:38;1.95;;;1.50;;
62711;SDS011;48772;55.586;37.730;2024-01-11T07:22:04;1.17;;;1.08;;
62711;SDS011;48772;55.586;37.730;2024-01-11T07:24:33;1.92;;;1.20;;
62711;SDS011;48772;55.586;37.730;2024-01-11T07:27:18;1.13;;;0.90;;
62711;SDS011;48772;55.586;37.730;2024-01-11T07:29:44;2.78;;;1.23;;
62711;SDS011;48772;55.586;37.730;2024-01-11T07:32:11;2.35;;;1.30;;
62711;SDS011;48772;55.586;37.730;2024-01-11T07:34:46;2.58;;;1.27;;
62711;SDS011;48772;55.586;37.730;2024-01-11T07:37:13;2.85;;;1.40;;
62711;SDS011;48772;55.586;37.730;2024-01-11T07:39:39;1.30;;;1.20;;
62711;SDS011;48772;55.586;37.730;2024-01-11T07:42:05;1.65;;;1.48;;
62711;SDS011;48772;55.586;37.730;2024-01-11T07:44:32;1.13;;;1.10;;
62711;SDS011;48772;55.586;37.730;2024-01-11T07:46:58;1.38;;;0.90;;
62711;SDS011;48772;55.586;37.730;2024-01-11T07:49:24;3.33;;;1.30;;
62711;SDS011;48772;55.586;37.730;2024-01-11T07:51:50;2.40;;;1.05;;
62711;SDS011;48772;55.586;37.730;2024-01-11T07:54:16;3.88;;;1.08;;
62711;SDS011;48772;55.586;37.730;2024-01-11T07:56:42;4.40;;;1.23;;
62711;SDS011;48772;55.586;37.730;2024-01-11T07:59:08;1.38;;;0.90;;
62711;SDS011;48772;55.586;37.730;2024-01-11T08:01:39;1.70;;;0.90;;
62711;SDS011;48772;55.586;37.730;2024-01-11T08:04:04;8.52;;;0.90;;
62711;SDS011;48772;55.586;37.730;2024-01-11T08:06:31;1.05;;;0.95;;
62711;SDS011;48772;55.586;37.730;2024-01-11T08:08:57;2.20;;;0.93;;
62711;SDS011;48772;55.586;37.730;2024-01-11T08:11:24;1.25;;;1.15;;
62711;SDS011;48772;55.586;37.730;2024-01-11T08:13:50;2.50;;;1.15;;
62711;SDS011;48772;55.586;37.730;2024-01-11T08:16:19;0.70;;;0.70;;
62711;SDS011;48772;55.586;37.730;2024-01-11T08:18:45;2.58;;;1.52;;
62711;SDS011;48772;55.586;37.730;2024-01-11T08:21:19;1.02;;;0.88;;
62711;SDS011;48772;55.586;37.730;2024-01-11T08:23:46;1.42;;;1.10;;
62711;SDS011;48772;55.586;37.730;2024-01-11T08:26:16;2.60;;;1.25;;
62711;SDS011;48772;55.586;37.730;2024-01-11T08:28:45;6.47;;;1.13;;
62711;SDS011;48772;55.586;37.730;2024-01-11T08:31:11;1.63;;;0.95;;
62711;SDS011;48772;55.586;37.730;2024-01-11T08:33:38;2.17;;;1.27;;
62711;SDS011;48772;55.586;37.730;2024-01-11T08:36:05;1.75;;;1.00;;
62711;SDS011;48772;55.586;37.730;2024-01-11T08:38:32;2.88;;;1.17;;
62711;SDS011;48772;55.586;37.730;2024-01-11T08:40:58;2.38;;;1.35;;
62711;SDS011;48772;55.586;37.730;2024-01-11T08:43:25;2.83;;;1.15;;
62711;SDS011;48772;55.586;37.730;2024-01-11T08:45:54;1.58;;;1.02;;
62711;SDS011;48772;55.586;37.730;2024-01-11T08:48:20;3.40;;;1.75;;
62711;SDS011;48772;55.586;37.730;2024-01-11T08:50:46;2.33;;;0.95;;
62711;SDS011;48772;55.586;37.730;2024-01-11T08:53:12;5.53;;;1.33;;
62711;SDS011;48772;55.586;37.730;2024-01-11T08:55:39;1.63;;;1.30;;
62711;SDS011;48772;55.586;37.730;2024-01-11T08:58:14;6.18;;;1.30;;
62711;SDS011;48772;55.586;37.730;2024-01-11T09:00:40;2.20;;;1.35;;
62711;SDS011;48772;55.586;37.730;2024-01-11T09:03:07;1.63;;;1.30;;
62711;SDS011;48772;55.586;37.730;2024-01-11T09:05:33;10.25;;;1.40;;
62711;SDS011;48772;55.586;37.730;2024-01-11T09:07:59;1.33;;;1.10;;
62711;SDS011;48772;55.586;37.730;2024-01-11T09:10:29;2.60;;;1.08;;
62711;SDS011;48772;55.586;37.730;2024-01-11T09:12:55;19.25;;;1.88;;
62711;SDS011;48772;55.586;37.730;2024-01-11T09:15:21;2.50;;;0.98;;
62711;SDS011;48772;55.586;37.730;2024-01-11T09:17:47;1.05;;;0.90;;
62711;SDS011;48772;55.586;37.730;2024-01-11T09:20:14;6.03;;;1.40;;
62711;SDS011;48772;55.586;37.730;2024-01-11T09:22:41;5.50;;;1.10;;
62711;SDS011;48772;55.586;37.730;2024-01-11T09:25:07;0.50;;;0.50;;
62711;SDS011;48772;55.586;37.730;2024-01-11T09:27:33;1.52;;;0.80;;
62711;SDS011;48772;55.586;37.730;2024-01-11T09:30:00;0.68;;;0.68;;
62711;SDS011;48772;55.586;37.730;2024-01-11T09:32:29;0.80;;;0.80;;
62711;SDS011;48772;55.586;37.730;2024-01-11T09:34:57;1.85;;;0.95;;
62711;SDS011;48772;55.586;37.730;2024-01-11T09:37:22;2.28;;;1.13;;
62711;SDS011;48772;55.586;37.730;2024-01-11T09:39:49;0.70;;;0.70;;
62711;SDS011;48772;55.586;37.730;2024-01-11T09:42:15;0.80;;;0.80;;
62711;SDS011;48772;55.586;37.730;2024-01-11T09:44:41;1.95;;;1.00;;
62711;SDS011;48772;55.586;37.730;2024-01-11T09:47:10;1.10;;;1.00;;
62711;SDS011;48772;55.586;37.730;2024-01-11T09:49:38;1.15;;;1.05;;
62711;SDS011;48772;55.586;37.730;2024-01-11T09:52:06;1.70;;;1.20;;
62711;SDS011;48772;55.586;37.730;2024-01-11T09:54:35;1.50;;;1.27;;
62711;SDS011;48772;55.586;37.730;2024-01-11T09:57:03;2.20;;;1.20;;
62711;SDS011;48772;55.586;37.730;2024-01-11T09:59:30;1.58;;;1.40;;
62711;SDS011;48772;55.586;37.730;2024-01-11T10:01:56;2.10;;;1.17;;
62711;SDS011;48772;55.586;37.730;2024-01-11T10:04:22;1.73;;;1.63;;
62711;SDS011;48772;55.586;37.730;2024-01-11T10:06:49;2.05;;;1.52;;
62711;SDS011;48772;55.586;37.730;2024-01-11T10:09:17;2.33;;;1.50;;
62711;SDS011;48772;55.586;37.730;2024-01-11T10:11:43;3.50;;;1.85;;
62711;SDS011;48772;55.586;37.730;2024-01-11T10:14:11;1.13;;;0.95;;
62711;SDS011;48772;55.586;37.730;2024-01-11T10:16:38;1.50;;;1.25;;
62711;SDS011;48772;55.586;37.730;2024-01-11T10:19:04;1.10;;;1.00;;
62711;SDS011;48772;55.586;37.730;2024-01-11T10:21:31;0.77;;;0.77;;
62711;SDS011;48772;55.586;37.730;2024-01-11T10:23:58;1.10;;;1.00;;
62711;SDS011;48772;55.586;37.730;2024-01-11T10:26:28;1.27;;;1.15;;
62711;SDS011;48772;55.586;37.730;2024-01-11T10:28:58;1.30;;;1.20;;
62711;SDS011;48772;55.586;37.730;2024-01-11T10:31:41;3.28;;;1.02;;
62711;SDS011;48772;55.586;37.730;2024-01-11T10:34:10;1.60;;;1.40;;
62711;SDS011;48772;55.586;37.730;2024-01-11T10:36:37;1.25;;;1.15;;
62711;SDS011;48772;55.586;37.730;2024-01-11T10:39:04;4.93;;;1.50;;
62711;SDS011;48772;55.586;37.730;2024-01-11T10:41:37;2.13;;;1.27;;
62711;SDS011;48772;55.586;37.730;2024-01-11T10:44:07;0.73;;;0.73;;
62711;SDS011;48772;55.586;37.730;2024-01-11T10:46:46;2.22;;;1.00;;
62711;SDS011;48772;55.586;37.730;2024-01-11T10:49:17;1.05;;;0.95;;
62711;SDS011;48772;55.586;37.730;2024-01-11T10:51:53;1.30;;;0.80;;
62711;SDS011;48772;55.586;37.730;2024-01-11T10:54:26;0.90;;;0.90;;
62711;SDS011;48772;55.586;37.730;2024-01-11T10:56:54;2.08;;;1.25;;
62711;SDS011;48772;55.586;37.730;2024-01-11T10:59:22;1.30;;;1.00;;
62711;SDS011;48772;55.586;37.730;2024-01-11T11:01:52;0.68;;;0.68;;
62711;SDS011;48772;55.586;37.730;2024-01-11T11:04:21;0.70;;;0.70;;
62711;SDS011;48772;55.586;37.730;2024-01-11T11:06:53;1.17;;;0.88;;
62711;SDS011;48772;55.586;37.730;2024-01-11T11:11:49;0.90;;;0.80;;
62711;SDS011;48772;55.586;37.730;2024-01-11T11:14:15;1.20;;;1.10;;
62711;SDS011;48772;55.586;37.730;2024-01-11T11:16:43;2.55;;;1.17;;
62711;SDS011;48772;55.586;37.730;2024-01-11T11:19:10;2.67;;;1.20;;
62711;SDS011;48772;55.586;37.730;2024-01-11T11:21:44;3.20;;;1.00;;
62711;SDS011;48772;55.586;37.730;2024-01-11T11:24:14;1.55;;;0.75;;
62711;SDS011;48772;55.586;37.730;2024-01-11T11:26:44;1.48;;;1.10;;
62711;SDS011;48772;55.586;37.730;2024-01-11T11:29:10;1.45;;;1.23;;
62711;SDS011;48772;55.586;37.730;2024-01-11T11:31:37;1.38;;;1.13;;
62711;SDS011;48772;55.586;37.730;2024-01-11T11:34:09;1.05;;;1.00;;
62711;SDS011;48772;55.586;37.730;2024-01-11T11:36:39;1.77;;;1.38;;
62711;SDS011;48772;55.586;37.730;2024-01-11T11:39:09;1.52;;;1.38;;
62711;SDS011;48772;55.586;37.730;2024-01-11T11:41:39;1.13;;;1.02;;
62711;SDS011;48772;55.586;37.730;2024-01-11T11:44:05;0.50;;;0.50;;
62711;SDS011;48772;55.586;37.730;2024-01-11T11:46:32;1.33;;;1.13;;
62711;SDS011;48772;55.586;37.730;2024-01-11T11:48:58;0.82;;;0.70;;
62711;SDS011;48772;55.586;37.730;2024-01-11T11:51:25;1.45;;;1.08;;
62711;SDS011;48772;55.586;37.730;2024-01-11T11:53:55;1.60;;;1.10;;
62711;SDS011;48772;55.586;37.730;2024-01-11T11:56:23;1.17;;;0.95;;
62711;SDS011;48772;55.586;37.730;2024-01-11T11:58:49;1.40;;;0.90;;
62711;SDS011;48772;55.586;37.730;2024-01-11T12:01:18;6.25;;;1.25;;
62711;SDS011;48772;55.586;37.730;2024-01-11T12:03:47;1.10;;;0.98;;
62711;SDS011;48772;55.586;37.730;2024-01-11T12:06:19;3.17;;;0.73;;
62711;SDS011;48772;55.586;37.730;2024-01-11T12:08:48;1.40;;;1.08;;
62711;SDS011;48772;55.586;37.730;2024-01-11T12:11:18;2.75;;;0.98;;
62711;SDS011;48772;55.586;37.730;2024-01-11T12:13:49;5.60;;;1.23;;
62711;SDS011;48772;55.586;37.730;2024-01-11T12:16:16;1.33;;;1.20;;
62711;SDS011;48772;55.586;37.730;2024-01-11T12:18:42;2.65;;;1.20;;
62711;SDS011;48772;55.586;37.730;2024-01-11T12:21:09;2.92;;;1.08;;
62711;SDS011;48772;55.586;37.730;2024-01-11T12:23:36;1.73;;;1.17;;
62711;SDS011;48772;55.586;37.730;2024-01-11T12:26:07;1.15;;;1.08;;
62711;SDS011;48772;55.586;37.730;2024-01-11T12:28:39;3.00;;;1.20;;
62711;SDS011;48772;55.586;37.730;2024-01-11T12:31:06;3.60;;;1.27;;
62711;SDS011;48772;55.586;37.730;2024-01-11T12:33:32;1.77;;;1.38;;
62711;SDS011;48772;55.586;37.730;2024-01-11T12:36:00;3.88;;;1.40;;
62711;SDS011;48772;55.586;37.730;2024-01-11T12:38:26;2.75;;;1.85;;
62711;SDS011;48772;55.586;37.730;2024-01-11T12:40:52;4.40;;;2.03;;
62711;SDS011;48772;55.586;37.730;2024-01-11T12:43:18;2.25;;;1.48;;
62711;SDS011;48772;55.586;37.730;2024-01-11T12:45:45;2.92;;;1.60;;
62711;SDS011;48772;55.586;37.730;2024-01-11T12:48:11;3.47;;;1.70;;
62711;SDS011;48772;55.586;37.730;2024-01-11T12:50:39;0.95;;;0.93;;
62711;SDS011;48772;55.586;37.730;2024-01-11T12:53:15;2.13;;;1.42;;
62711;SDS011;48772;55.586;37.730;2024-01-11T12:55:48;1.58;;;1.20;;
62711;SDS011;48772;55.586;37.730;2024-01-11T12:58:27;2.22;;;1.10;;
62711;SDS011;48772;55.586;37.730;2024-01-11T13:00:54;3.30;;;1.45;;
62711;SDS011;48772;55.586;37.730;2024-01-11T13:03:21;3.28;;;1.58;;
62711;SDS011;48772;55.586;37.730;2024-01-11T13:05:47;2.47;;;1.05;;
62711;SDS011;48772;55.586;37.730;2024-01-11T13:08:13;3.45;;;1.20;;
62711;SDS011;48772;55.586;37.730;2024-01-11T13:10:40;3.10;;;1.10;;
62711;SDS011;48772;55.586;37.730;2024-01-11T13:13:06;5.05;;;1.27;;
62711;SDS011;48772;55.586;37.730;2024-01-11T13:15:34;5.20;;;1.23;;
62711;SDS011;48772;55.586;37.730;2024-01-11T13:18:02;1.10;;;1.00;;
62711;SDS011;48772;55.586;37.730;2024-01-11T13:20:30;2.03;;;1.10;;
62711;SDS011;48772;55.586;37.730;2024-01-11T13:25:44;2.70;;;1.40;;
62711;SDS011;48772;55.586;37.730;2024-01-11T13:28:11;2.20;;;1.10;;
62711;SDS011;48772;55.586;37.730;2024-01-11T13:30:40;2.40;;;1.43;;
62711;SDS011;48772;55.586;37.730;2024-01-11T13:33:08;1.53;;;0.90;;
62711;SDS011;48772;55.586;37.730;2024-01-11T13:35:39;1.23;;;0.93;;
62711;SDS011;48772;55.586;37.730;2024-01-11T13:38:08;1.93;;;1.17;;
62711;SDS011;48772;55.586;37.730;2024-01-11T13:40:38;1.73;;;0.70;;
62711;SDS011;48772;55.586;37.730;2024-01-11T13:43:05;1.80;;;1.50;;
62711;SDS011;48772;55.586;37.730;2024-01-11T13:45:32;1.87;;;1.27;;
62711;SDS011;48772;55.586;37.730;2024-01-11T13:47:58;4.43;;;1.23;;
62711;SDS011;48772;55.586;37.730;2024-01-11T13:50:25;5.43;;;1.10;;
62711;SDS011;48772;55.586;37.730;2024-01-11T13:52:52;1.43;;;1.33;;
62711;SDS011;48772;55.586;37.730;2024-01-11T13:55:19;0.80;;;0.80;;
62711;SDS011;48772;55.586;37.730;2024-01-11T13:57:47;1.30;;;1.13;;
62711;SDS011;48772;55.586;37.730;2024-01-11T14:00:15;1.93;;;1.40;;
62711;SDS011;48772;55.586;37.730;2024-01-11T14:02:43;2.07;;;1.20;;
62711;SDS011;48772;55.586;37.730;2024-01-11T14:05:10;2.07;;;0.90;;
62711;SDS011;48772;55.586;37.730;2024-01-11T14:07:39;1.07;;;1.03;;
62711;SDS011;48772;55.586;37.730;2024-01-11T14:10:06;2.57;;;1.60;;
62711;SDS011;48772;55.586;37.730;2024-01-11T14:12:39;3.08;;;1.73;;
62711;SDS011;48772;55.586;37.730;2024-01-11T14:15:06;3.23;;;1.70;;
62711;SDS011;48772;55.586;37.730;2024-01-11T14:17:37;1.17;;;0.90;;
62711;SDS011;48772;55.586;37.730;2024-01-11T14:20:04;1.27;;;1.17;;
62711;SDS011;48772;55.586;37.730;2024-01-11T14:22:36;2.37;;;1.83;;
62711;SDS011;48772;55.586;37.730;2024-01-11T14:25:02;0.87;;;0.87;;
62711;SDS011;48772;55.586;37.730;2024-01-11T14:27:30;1.40;;;1.23;;
62711;SDS011;48772;55.586;37.730;2024-01-11T14:29:56;1.90;;;1.20;;
62711;SDS011;48772;55.586;37.730;2024-01-11T14:32:24;1.70;;;1.23;;
62711;SDS011;48772;55.586;37.730;2024-01-11T14:34:52;1.60;;;1.43;;
62711;SDS011;48772;55.586;37.730;2024-01-11T14:37:18;1.23;;;1.07;;
62711;SDS011;48772;55.586;37.730;2024-01-11T14:39:44;3.57;;;1.40;;
62711;SDS011;48772;55.586;37.730;2024-01-11T14:42:10;2.53;;;1.43;;
62711;SDS011;48772;55.586;37.730;2024-01-11T14:44:36;1.30;;;0.73;;